Skip Navigation LinksHome page > Weather > Current weather Skip Navigation Links

Current Weather

Ndjamena, Chad

For information only: do not use for flight planning or navigation.
Latest weather
Observation time Friday, September 19, 2014 4:00 PM WAT
Local time Friday, September 19, 2014 4:47 PM WAT
Flight conditions Visual Meteorological Conditions
Winds
Wind direction variable
Wind speed 3 mph
Visibility 6.2 mi.
Sky condition
Ceiling unlimited
Cloud layer few clouds 4,000 ft.
Temperature 91°F
Dewpoint 68°F
Altimeter 29.80 in.Hg
Derived measurements
Relative humidity 47%
Heat index 96°F
Density altitude 2805 ft.
Remarks
No significant changes expected in the next two hours.
METAR FTTJ 191500Z VRB03KT 9999 FEW040 33/20 Q1009 NOSIG

Settings

Location code

InnerDrive.Weather 4.0.5372.0 Release CLR 4.0.30319.34014
Copyright ©2014 Inner Drive Technology. All rights reserved. Portions Copyright ©1986-2014 David Braverman.

Find weather

Site navigation


Skip Navigation Links

Place info

Page info

PayPal - The safer, easier way to pay online!

Return home.

Copyright ©2014 Inner Drive Technology. Purveyors of fine, hand-crafted computer software. Page printed 2014-09-19T15:47:21 UTC.